Time;durP1;ratioP1;P1;durP2;ratioP2;P2;SDS_P1;SDS_P2;PMS_P1;PMS_P2;Temp;Humidity;BMP_temperature;BMP_pressure;BME280_temperature;BME280_humidity;BME280_pressure;Samples;Min_cycle;Max_cycle;Signal;HPM_P1;HPM_P2
2021/11/05 00:02:11;;;;;;;23.67;14.73;;;;;;;6.04;100.00;97853.91;10442169;28;20060;-72
2021/11/05 00:07:14;;;;;;;24.90;15.88;;;;;;;6.04;100.00;97869.94;10438267;28;20051;-72
2021/11/05 00:12:17;;;;;;;23.90;15.85;;;;;;;6.03;100.00;97874.47;10430005;28;20053;-72
2021/11/05 00:17:22;;;;;;;23.08;14.88;;;;;;;6.03;100.00;97874.47;10433450;28;20119;-72
2021/11/05 00:22:25;;;;;;;21.15;12.38;;;;;;;6.03;100.00;97895.00;10440373;28;20077;-72
2021/11/05 00:27:28;;;;;;;20.52;12.93;;;;;;;6.01;100.00;97887.13;10439675;28;20132;-72
2021/11/05 00:32:32;;;;;;;20.52;11.85;;;;;;;6.03;100.00;97886.97;10439513;28;20053;-72
2021/11/05 00:37:35;;;;;;;19.00;11.40;;;;;;;6.01;100.00;97892.47;10440123;28;20140;-72
2021/11/05 00:42:38;;;;;;;17.27;11.75;;;;;;;5.99;100.00;97910.47;10442250;28;20873;-72
2021/11/05 00:47:43;;;;;;;19.88;12.15;;;;;;;5.98;100.00;97919.47;10469331;28;20052;-72
2021/11/05 00:52:46;;;;;;;21.27;13.10;;;;;;;5.98;100.00;97914.97;10460773;28;20068;-72
2021/11/05 00:57:49;;;;;;;20.92;12.57;;;;;;;5.96;100.00;97918.75;10448872;28;20152;-71
2021/11/05 01:02:53;;;;;;;19.67;12.18;;;;;;;5.98;100.00;97925.66;10446248;28;20779;-72
2021/11/05 01:07:56;;;;;;;19.45;13.48;;;;;;;5.92;100.00;97925.41;10439846;28;21321;-72
2021/11/05 01:12:59;;;;;;;22.05;14.35;;;;;;;5.88;100.00;97940.03;10436856;28;20487;-72
2021/11/05 01:18:04;;;;;;;24.17;14.73;;;;;;;5.85;100.00;97946.53;10443532;28;20479;-73
2021/11/05 01:23:07;;;;;;;22.13;14.48;;;;;;;5.83;100.00;97949.31;10437247;28;20144;-72
2021/11/05 01:28:10;;;;;;;26.75;16.15;;;;;;;5.81;100.00;97948.63;10426461;28;20114;-72
2021/11/05 01:33:15;;;;;;;26.10;16.08;;;;;;;5.79;100.00;97963.97;10438398;28;20578;-72
2021/11/05 01:38:19;;;;;;;25.23;15.70;;;;;;;5.79;100.00;97963.13;10441321;28;20041;-72
2021/11/05 01:43:22;;;;;;;27.33;15.35;;;;;;;5.78;100.00;97967.63;10443067;28;20053;-70
2021/11/05 01:48:26;;;;;;;24.00;15.32;;;;;;;5.76;100.00;97974.94;10435094;28;20137;-70
2021/11/05 01:53:29;;;;;;;30.60;17.35;;;;;;;5.72;100.00;97984.22;10435588;28;20479;-69
2021/11/05 01:58:32;;;;;;;29.20;18.98;;;;;;;5.67;100.00;97987.31;10441090;28;20059;-69
2021/11/05 02:03:37;;;;;;;29.77;17.77;;;;;;;5.66;100.00;97996.31;10420141;28;20041;-69
2021/11/05 02:08:43;;;;;;;34.00;18.38;;;;;;;5.63;100.00;98001.09;10447690;28;20107;-70
2021/11/05 02:13:47;;;;;;;29.67;18.17;;;;;;;5.62;100.00;98010.97;10434746;28;20063;-69
2021/11/05 02:18:51;;;;;;;30.23;18.17;;;;;;;5.61;100.00;98005.75;10434125;28;20037;-69
2021/11/05 02:23:56;;;;;;;29.15;17.70;;;;;;;5.61;100.00;98008.41;10434662;28;20056;-70
2021/11/05 02:28:59;;;;;;;27.08;18.02;;;;;;;5.62;100.00;98021.66;10433973;28;20410;-71
2021/11/05 02:34:02;;;;;;;31.45;20.33;;;;;;;5.61;100.00;98029.78;10432153;28;20135;-71
2021/11/05 02:39:08;;;;;;;30.55;20.00;;;;;;;5.60;100.00;98020.09;10433126;28;20139;-72
2021/11/05 02:44:12;;;;;;;31.83;19.30;;;;;;;5.60;100.00;98033.44;10448963;28;20510;-70
2021/11/05 02:49:16;;;;;;;27.98;19.30;;;;;;;5.59;100.00;98040.63;10446855;28;20128;-70
2021/11/05 02:54:20;;;;;;;31.60;19.13;;;;;;;5.59;100.00;98042.44;10441318;28;20036;-71
2021/11/05 02:59:23;;;;;;;32.20;20.98;;;;;;;5.59;100.00;98048.66;10440021;28;20545;-71
2021/11/05 03:04:26;;;;;;;27.52;18.38;;;;;;;5.58;100.00;98062.16;10429770;28;20045;-71
2021/11/05 03:09:34;;;;;;;25.50;17.67;;;;;;;5.59;100.00;98058.47;10439914;28;20073;-71
2021/11/05 03:14:38;;;;;;;24.58;16.02;;;;;;;5.59;100.00;98069.16;10442450;28;20497;-71
2021/11/05 03:19:44;;;;;;;24.75;16.17;;;;;;;5.59;100.00;98079.84;10438654;28;20045;-71
2021/11/05 03:24:49;;;;;;;25.58;15.50;;;;;;;5.59;100.00;98093.22;10455735;28;20114;-70
2021/11/05 03:29:52;;;;;;;24.85;15.55;;;;;;;5.58;100.00;98095.06;10434612;28;20055;-70
2021/11/05 03:34:55;;;;;;;27.02;18.33;;;;;;;5.58;100.00;98104.91;10447444;28;20473;-70
2021/11/05 03:39:59;;;;;;;22.83;16.13;;;;;;;5.55;100.00;98125.56;10438395;28;20052;-71
2021/11/05 03:45:02;;;;;;;22.55;16.05;;;;;;;5.58;100.00;98129.78;10441582;28;20044;-70
2021/11/05 03:50:06;;;;;;;24.75;16.10;;;;;;;5.58;100.00;98137.81;10429984;28;20240;-70
2021/11/05 03:55:10;;;;;;;23.20;16.08;;;;;;;5.58;100.00;98142.31;10440156;28;20041;-70
2021/11/05 04:00:15;;;;;;;22.58;15.52;;;;;;;5.58;100.00;98153.84;10438290;28;20072;-70
2021/11/05 04:05:18;;;;;;;21.65;15.32;;;;;;;5.59;100.00;98160.03;10449753;28;20815;-70
2021/11/05 04:10:22;;;;;;;22.00;14.35;;;;;;;5.59;100.00;98158.22;10446588;28;20670;-70
2021/11/05 04:15:25;;;;;;;18.38;13.88;;;;;;;5.59;100.00;98171.56;10446325;28;20047;-70
2021/11/05 04:20:28;;;;;;;20.65;14.55;;;;;;;5.59;100.00;98178.72;10441810;28;20055;-70
2021/11/05 04:25:33;;;;;;;22.90;14.93;;;;;;;5.60;100.00;98181.28;10439260;28;20045;-70
2021/11/05 04:30:41;;;;;;;22.35;15.27;;;;;;;5.59;100.00;98192.94;10439694;28;20033;-71
2021/11/05 04:35:45;;;;;;;21.27;14.68;;;;;;;5.58;100.00;98185.91;10437880;28;20148;-70
2021/11/05 04:40:49;;;;;;;26.38;18.40;;;;;;;5.59;100.00;98210.78;10438706;28;20057;-70
2021/11/05 04:45:53;;;;;;;24.42;16.75;;;;;;;5.55;100.00;98211.09;10465968;28;20053;-70
2021/11/05 04:50:56;;;;;;;28.80;17.75;;;;;;;5.52;100.00;98222.03;10439046;28;20040;-70
2021/11/05 04:56:00;;;;;;;25.92;15.77;;;;;;;5.58;100.00;98230.50;10436718;28;20044;-70
2021/11/05 05:01:03;;;;;;;20.85;14.60;;;;;;;5.57;100.00;98236.84;10436970;28;20838;-70
2021/11/05 05:06:06;;;;;;;20.48;14.80;;;;;;;5.54;100.00;98235.25;10454603;28;20407;-70
2021/11/05 05:11:12;;;;;;;25.48;17.23;;;;;;;5.57;100.00;98250.19;10444248;28;20060;-70
2021/11/05 05:16:15;;;;;;;28.10;17.60;;;;;;;5.55;100.00;98253.84;10437332;28;20111;-70
2021/11/05 05:21:18;;;;;;;33.92;20.92;;;;;;;5.59;100.00;98257.09;10435164;28;20049;-69
2021/11/05 05:26:23;;;;;;;26.95;17.50;;;;;;;5.58;100.00;98263.41;10429521;28;20139;-70
2021/11/05 05:31:26;;;;;;;32.40;20.98;;;;;;;5.60;100.00;98268.59;10445805;28;20052;-69
2021/11/05 05:36:29;;;;;;;34.00;20.77;;;;;;;5.60;100.00;98284.63;10463875;28;20055;-70
2021/11/05 05:41:33;;;;;;;36.63;21.40;;;;;;;5.58;100.00;98281.28;10477410;28;20040;-70
2021/11/05 05:46:36;;;;;;;37.08;22.77;;;;;;;5.58;100.00;98300.81;10477480;28;20486;-70
2021/11/05 05:51:39;;;;;;;52.70;27.52;;;;;;;5.59;100.00;98309.66;10471275;28;20203;-70
2021/11/05 05:56:43;;;;;;;48.95;27.08;;;;;;;5.58;100.00;98318.69;10474074;28;20051;-70
2021/11/05 06:01:47;;;;;;;49.95;26.85;;;;;;;5.56;100.00;98326.81;10475730;28;20468;-70
2021/11/05 06:06:50;;;;;;;48.58;25.45;;;;;;;5.53;100.00;98338.63;10467676;28;20048;-70
2021/11/05 06:11:54;;;;;;;48.88;26.98;;;;;;;5.55;100.00;98350.03;10469235;28;20059;-70
2021/11/05 06:16:57;;;;;;;44.50;25.33;;;;;;;5.56;100.00;98356.22;10464550;28;20043;-70
2021/11/05 06:22:01;;;;;;;46.53;25.63;;;;;;;5.57;100.00;98367.78;10475494;28;20059;-70
2021/11/05 06:27:05;;;;;;;43.60;24.65;;;;;;;5.58;100.00;98372.16;10480847;28;20127;-70
2021/11/05 06:32:09;;;;;;;42.10;24.52;;;;;;;5.58;100.00;98382.84;10463528;28;20041;-70
2021/11/05 06:37:12;;;;;;;43.28;25.00;;;;;;;5.58;100.00;98385.50;10476056;28;20047;-70
2021/11/05 06:42:20;;;;;;;53.78;26.60;;;;;;;5.58;100.00;98399.69;10467208;28;20044;-70
2021/11/05 06:47:23;;;;;;;45.65;25.35;;;;;;;5.59;100.00;98405.88;10459087;28;20541;-71
2021/11/05 06:52:26;;;;;;;43.42;24.52;;;;;;;5.60;100.00;98420.94;10471781;28;20045;-71
2021/11/05 06:57:31;;;;;;;42.10;23.58;;;;;;;5.60;100.00;98428.97;10468047;28;20055;-73
2021/11/05 07:02:40;;;;;;;51.17;26.80;;;;;;;5.59;100.00;98436.16;10469440;28;20040;-72
2021/11/05 07:07:43;;;;;;;46.17;25.92;;;;;;;5.59;100.00;98448.66;10463780;28;20510;-72
2021/11/05 07:12:50;;;;;;;61.85;28.98;;;;;;;5.62;100.00;98461.75;10479619;28;20055;-73
2021/11/05 07:17:54;;;;;;;50.50;26.67;;;;;;;5.61;100.00;98474.28;10505060;28;20044;-71
2021/11/05 07:22:57;;;;;;;50.80;25.35;;;;;;;5.61;100.00;98482.31;10512375;28;20040;-78
2021/11/05 07:28:01;;;;;;;49.58;26.65;;;;;;;5.62;100.00;98499.19;10504841;28;20074;-76
2021/11/05 07:33:06;;;;;;;52.80;26.40;;;;;;;5.61;100.00;98506.34;10493299;28;20040;-75
2021/11/05 07:38:08;;;;;;;57.33;28.50;;;;;;;5.63;100.00;98516.91;10476171;28;20044;-74
2021/11/05 07:43:13;;;;;;;53.17;28.73;;;;;;;5.64;100.00;98521.28;10472127;28;20045;-73
2021/11/05 07:48:17;;;;;;;59.45;29.42;;;;;;;5.65;100.00;98539.84;10489678;28;20040;-76
2021/11/05 07:53:20;;;;;;;55.17;29.67;;;;;;;5.66;100.00;98551.41;10491207;28;20071;-68
2021/11/05 07:58:24;;;;;;;47.78;26.25;;;;;;;5.67;100.00;98555.78;10490192;28;20387;-72
2021/11/05 08:03:27;;;;;;;56.88;27.88;;;;;;;5.72;100.00;98574.94;10489898;28;20119;-70
2021/11/05 08:08:31;;;;;;;63.13;30.73;;;;;;;5.74;100.00;98589.03;10490545;28;20052;-71
2021/11/05 08:13:37;;;;;;;69.43;32.30;;;;;;;5.73;100.00;98595.34;10472965;28;20040;-69
2021/11/05 08:18:40;;;;;;;71.00;31.63;;;;;;;5.75;100.00;98598.75;10487147;28;20051;-70
2021/11/05 08:23:44;;;;;;;65.65;31.33;;;;;;;5.77;100.00;98604.84;10488444;28;20542;-69
2021/11/05 08:28:48;;;;;;;77.53;32.97;;;;;;;5.78;100.00;98609.22;10492337;28;20040;-69
2021/11/05 08:33:52;;;;;;;62.13;29.55;;;;;;;5.79;100.00;98618.94;10486329;28;20053;-69
2021/11/05 08:38:55;;;;;;;55.30;27.75;;;;;;;5.83;100.00;98624.88;10496795;28;20055;-70
2021/11/05 08:44:00;;;;;;;53.35;27.17;;;;;;;5.86;100.00;98632.66;10491505;28;20114;-72
2021/11/05 08:49:10;;;;;;;43.33;24.25;;;;;;;5.83;100.00;98641.75;10480825;28;20762;-72
2021/11/05 08:54:15;;;;;;;45.15;24.30;;;;;;;5.83;100.00;98652.44;10472196;28;20051;-72
2021/11/05 08:59:22;;;;;;;48.28;25.67;;;;;;;5.86;100.00;98654.88;10483083;28;20037;-72
2021/11/05 09:04:25;;;;;;;54.15;27.35;;;;;;;5.91;100.00;98667.03;10472014;28;20043;-72
2021/11/05 09:09:30;;;;;;;41.58;21.13;;;;;;;5.95;100.00;98676.47;10479605;28;20056;-69
2021/11/05 09:14:35;;;;;;;17.40;11.38;;;;;;;5.95;100.00;98672.00;10478479;28;20804;-69
2021/11/05 09:19:44;;;;;;;20.65;12.30;;;;;;;6.04;100.00;98688.28;10479643;28;20075;-69
2021/11/05 09:24:47;;;;;;;21.00;12.77;;;;;;;6.08;100.00;98690.59;10472156;28;20048;-70
2021/11/05 09:29:51;;;;;;;18.45;11.80;;;;;;;6.07;100.00;98698.75;10479697;28;20048;-69
2021/11/05 09:34:56;;;;;;;18.15;11.43;;;;;;;6.13;100.00;98709.78;10472918;28;20060;-70
2021/11/05 09:39:59;;;;;;;14.73;10.63;;;;;;;6.16;100.00;98709.56;10485254;28;20048;-70
2021/11/05 09:45:04;;;;;;;11.85;8.10;;;;;;;6.15;100.00;98713.19;10475549;28;20127;-70
2021/11/05 09:50:08;;;;;;;15.05;9.50;;;;;;;6.23;100.00;98735.78;10476168;28;20120;-70
2021/11/05 09:55:11;;;;;;;11.85;8.75;;;;;;;6.20;100.00;98734.22;10472252;28;20106;-69
2021/11/05 10:00:17;;;;;;;17.50;11.00;;;;;;;6.33;100.00;98747.44;10459634;28;20049;-70
2021/11/05 10:05:21;;;;;;;18.30;10.95;;;;;;;6.37;100.00;98753.38;10459798;28;20053;-70
2021/11/05 10:10:26;;;;;;;21.88;12.85;;;;;;;6.39;100.00;98759.44;10509895;28;20401;-69
2021/11/05 10:15:37;;;;;;;20.60;12.82;;;;;;;6.41;100.00;98768.22;10478242;28;20062;-69
2021/11/05 10:20:40;;;;;;;21.77;12.82;;;;;;;6.42;100.00;98770.75;10512344;28;20052;-70
2021/11/05 10:25:47;;;;;;;21.58;13.38;;;;;;;6.44;100.00;98779.50;10477775;28;20380;-70
2021/11/05 10:30:57;;;;;;;21.13;13.68;;;;;;;6.47;100.00;98781.94;10482045;28;20080;-69
2021/11/05 10:36:04;;;;;;;17.30;11.73;;;;;;;6.47;100.00;98784.63;10474567;28;20044;-69
2021/11/05 10:41:10;;;;;;;24.88;15.18;;;;;;;6.52;100.00;98789.59;10510006;28;20165;-69
2021/11/05 10:46:31;;;;;;;20.83;13.98;;;;;;;6.47;100.00;98781.94;10473934;28;20033;-68
2021/11/05 10:51:36;;;;;;;28.70;16.85;;;;;;;6.56;100.00;98787.50;10469031;28;20056;-71
2021/11/05 10:56:40;;;;;;;29.92;17.95;;;;;;;6.56;100.00;98798.22;10467171;28;20425;-71
2021/11/05 11:01:46;;;;;;;30.40;18.15;;;;;;;6.63;100.00;98807.47;10464309;28;20048;-70
2021/11/05 11:06:49;;;;;;;25.77;16.73;;;;;;;6.63;100.00;98807.47;10475223;28;20052;-72
2021/11/05 11:11:58;;;;;;;28.00;18.00;;;;;;;6.70;100.00;98819.34;10468403;28;20138;-72
2021/11/05 11:17:03;;;;;;;27.90;17.40;;;;;;;6.77;100.00;98817.84;10468034;28;20135;-69
2021/11/05 11:22:08;;;;;;;26.27;16.20;;;;;;;6.81;100.00;98818.47;10466092;28;20036;-71
2021/11/05 11:27:11;;;;;;;26.58;14.82;;;;;;;6.85;100.00;98809.19;10470542;28;20042;-69
2021/11/05 11:32:30;;;;;;;25.23;16.30;;;;;;;6.89;100.00;98813.31;10469696;28;20067;-75
2021/11/05 11:37:35;;;;;;;22.40;16.10;;;;;;;6.96;100.00;98818.16;10474962;28;20042;-72
2021/11/05 11:42:40;;;;;;;28.55;18.48;;;;;;;6.97;100.00;98820.72;10464901;28;20402;-69
2021/11/05 11:47:47;;;;;;;22.52;15.48;;;;;;;6.97;100.00;98819.84;10467429;28;20063;-73
2021/11/05 11:52:59;;;;;;;25.42;16.67;;;;;;;6.98;100.00;98819.75;10457752;28;20123;-73
2021/11/05 11:58:12;;;;;;;27.63;17.98;;;;;;;7.02;100.00;98818.47;10473018;28;20052;-75
2021/11/05 12:03:25;;;;;;;26.73;16.42;;;;;;;7.03;100.00;98820.19;10450109;28;20059;-70
2021/11/05 12:08:42;;;;;;;32.00;19.65;;;;;;;7.16;100.00;98835.22;10466777;28;20409;-71
2021/11/05 12:13:51;;;;;;;37.20;20.92;;;;;;;7.21;100.00;98841.06;10464776;28;20398;-69
2021/11/05 12:19:17;;;;;;;30.90;19.70;;;;;;;7.26;100.00;98830.78;10482362;28;20049;-74
2021/11/05 12:24:27;;;;;;;29.17;17.05;;;;;;;7.25;100.00;98831.78;10482709;28;20050;-74
2021/11/05 12:29:54;;;;;;;26.33;17.42;;;;;;;7.30;100.00;98848.31;10479776;28;20110;-75
2021/11/05 12:35:27;;;;;;;25.67;17.15;;;;;;;7.40;100.00;98848.41;10479253;28;20042;-70
2021/11/05 12:40:34;;;;;;;28.08;18.75;;;;;;;7.51;100.00;98861.75;10473721;28;20163;-68
2021/11/05 12:45:51;;;;;;;26.83;16.63;;;;;;;7.54;100.00;98857.94;10475361;28;20068;-69
2021/11/05 12:51:05;;;;;;;22.85;15.00;;;;;;;7.77;100.00;98855.13;10479016;28;20056;-80
2021/11/05 12:56:15;;;;;;;20.77;15.43;;;;;;;7.90;100.00;98860.25;10470081;28;20060;-74
2021/11/05 13:01:20;;;;;;;21.17;14.43;;;;;;;7.90;100.00;98861.13;10478001;28;20063;-71
2021/11/05 13:06:33;;;;;;;22.55;16.45;;;;;;;7.96;100.00;98870.47;10475691;28;20044;-74
2021/11/05 13:11:52;;;;;;;24.40;16.60;;;;;;;7.80;100.00;98870.94;10475719;28;20397;-72
2021/11/05 13:16:55;;;;;;;24.45;16.17;;;;;;;7.74;100.00;98868.78;10476626;28;20053;-71
2021/11/05 13:22:05;;;;;;;30.75;17.95;;;;;;;7.72;100.00;98877.81;10470832;28;20041;-76
2021/11/05 13:27:09;;;;;;;27.17;16.10;;;;;;;7.65;100.00;98879.31;10470436;28;20398;-70
2021/11/05 13:32:15;;;;;;;29.70;17.77;;;;;;;7.65;100.00;98889.19;10476347;28;20505;-73
2021/11/05 13:37:20;;;;;;;28.30;16.65;;;;;;;7.67;100.00;98881.84;10491937;28;20047;-75
2021/11/05 13:42:26;;;;;;;25.60;15.63;;;;;;;7.64;100.00;98891.03;10499005;28;20059;-74
2021/11/05 13:47:29;;;;;;;26.70;16.60;;;;;;;7.61;100.00;98891.28;10494165;28;20112;-75
2021/11/05 13:52:34;;;;;;;27.63;17.33;;;;;;;7.63;100.00;98893.84;10475709;28;20120;-73
2021/11/05 13:57:41;;;;;;;28.42;17.17;;;;;;;7.61;100.00;98914.59;10469677;28;20035;-72
2021/11/05 14:02:47;;;;;;;31.60;17.10;;;;;;;7.61;100.00;98915.41;10474201;28;20041;-73
2021/11/05 14:08:06;;;;;;;28.98;16.95;;;;;;;7.63;100.00;98909.94;10473670;28;20045;-67
2021/11/05 14:13:09;;;;;;;27.50;17.33;;;;;;;7.60;100.00;98927.13;10473079;28;20055;-72
2021/11/05 14:18:14;;;;;;;33.42;19.67;;;;;;;7.60;100.00;98940.53;10473719;28;20133;-69
2021/11/05 14:23:29;;;;;;;30.60;16.52;;;;;;;7.53;100.00;98945.56;10473100;28;20052;-73
2021/11/05 14:28:33;;;;;;;31.08;18.25;;;;;;;7.49;100.00;98948.63;10468803;28;20494;-72
2021/11/05 14:33:36;;;;;;;26.63;16.33;;;;;;;7.44;100.00;98953.53;10469226;28;20058;-72
2021/11/05 14:38:54;;;;;;;34.80;18.63;;;;;;;7.40;100.00;98959.16;10471381;28;20040;-71
2021/11/05 14:44:01;;;;;;;29.15;15.63;;;;;;;7.36;100.00;98957.69;10484099;28;20044;-71
2021/11/05 14:49:13;;;;;;;27.23;16.52;;;;;;;7.29;100.00;98969.06;10485147;28;20095;-69
2021/11/05 14:54:27;;;;;;;33.63;19.40;;;;;;;7.22;100.00;98979.44;10486545;28;20036;-70
2021/11/05 14:59:31;;;;;;;37.05;21.02;;;;;;;7.19;100.00;98990.41;10467752;28;20071;-74
2021/11/05 15:04:37;;;;;;;43.67;21.98;;;;;;;7.18;100.00;98988.69;10463097;28;20549;-75
2021/11/05 15:09:41;;;;;;;39.53;22.08;;;;;;;7.18;100.00;98986.03;10473067;28;20052;-75
2021/11/05 15:14:47;;;;;;;39.35;20.80;;;;;;;7.16;100.00;98990.66;10461994;28;20055;-75
2021/11/05 15:19:54;;;;;;;40.65;23.40;;;;;;;7.14;100.00;98993.47;10470168;28;20407;-75
2021/11/05 15:25:00;;;;;;;47.17;23.63;;;;;;;7.14;100.00;99003.31;10466834;28;20060;-76
2021/11/05 15:30:07;;;;;;;50.35;24.42;;;;;;;7.10;100.00;99002.72;10473677;28;20486;-76
2021/11/05 15:35:10;;;;;;;46.65;24.60;;;;;;;7.09;100.00;99011.72;10473101;28;20457;-76
2021/11/05 15:40:19;;;;;;;44.00;24.08;;;;;;;7.07;100.00;99019.03;10469802;28;20048;-71
2021/11/05 15:45:22;;;;;;;44.00;23.52;;;;;;;7.06;100.00;99020.88;10474040;28;20041;-77
2021/11/05 15:50:33;;;;;;;50.05;25.75;;;;;;;7.04;100.00;99020.16;10447715;28;20044;-75
2021/11/05 15:55:37;;;;;;;48.65;24.00;;;;;;;7.00;100.00;99028.56;10469680;28;20123;-80
2021/11/05 16:00:43;;;;;;;51.45;24.10;;;;;;;6.98;100.00;99039.41;10471779;28;20764;-72
2021/11/05 16:05:47;;;;;;;50.45;24.77;;;;;;;6.97;100.00;99040.38;10452841;28;20052;-73
2021/11/05 16:10:51;;;;;;;51.55;26.50;;;;;;;6.97;100.00;99039.50;10468803;28;20514;-73
2021/11/05 16:15:54;;;;;;;58.72;28.60;;;;;;;6.94;100.00;99045.97;10467290;28;20402;-75
2021/11/05 16:20:58;;;;;;;49.53;25.23;;;;;;;6.88;100.00;99054.50;10469642;28;20040;-76
2021/11/05 16:26:03;;;;;;;56.40;28.70;;;;;;;6.83;100.00;99054.00;10468282;28;20052;-75
2021/11/05 16:31:06;;;;;;;54.03;23.27;;;;;;;6.73;100.00;99062.78;10452155;28;20049;-73
2021/11/05 16:36:10;;;;;;;49.13;23.38;;;;;;;6.60;100.00;99073.59;10456488;28;20062;-76
2021/11/05 16:41:19;;;;;;;38.40;19.92;;;;;;;6.53;100.00;99075.06;10470019;28;20175;-73
2021/11/05 16:46:24;;;;;;;33.15;17.77;;;;;;;6.42;100.00;99077.72;10473417;28;20048;-76
2021/11/05 16:51:29;;;;;;;31.98;16.67;;;;;;;6.36;100.00;99081.72;10449880;28;20539;-73
2021/11/05 16:56:35;;;;;;;29.52;15.80;;;;;;;6.32;100.00;99089.13;10465384;28;20779;-71
2021/11/05 17:01:38;;;;;;;29.08;15.65;;;;;;;6.31;100.00;99084.75;10473375;28;20044;-71
2021/11/05 17:06:41;;;;;;;29.50;15.45;;;;;;;6.36;100.00;99099.56;10456968;28;20722;-72
2021/11/05 17:11:45;;;;;;;33.20;15.45;;;;;;;6.38;100.00;99103.00;10472897;28;20055;-73
2021/11/05 17:16:49;;;;;;;31.00;17.38;;;;;;;6.38;100.00;99113.69;10476362;28;20123;-72
2021/11/05 17:21:52;;;;;;;34.88;18.55;;;;;;;6.37;100.00;99122.69;10450743;28;20585;-69
2021/11/05 17:26:56;;;;;;;35.67;18.38;;;;;;;6.35;100.00;99133.53;10473737;28;20386;-71
2021/11/05 17:32:01;;;;;;;34.88;18.88;;;;;;;6.32;100.00;99136.44;10463307;28;20060;-72
2021/11/05 17:37:04;;;;;;;31.95;17.95;;;;;;;6.28;100.00;99141.16;10473584;28;21126;-71
2021/11/05 17:42:08;;;;;;;41.17;18.90;;;;;;;6.21;100.00;99139.94;10478464;28;20076;-70
2021/11/05 17:47:11;;;;;;;41.15;21.52;;;;;;;6.13;100.00;99148.53;10469878;28;20475;-74
2021/11/05 17:52:14;;;;;;;36.78;19.88;;;;;;;6.08;100.00;99158.72;10472731;28;20534;-69
2021/11/05 17:57:20;;;;;;;51.63;24.98;;;;;;;6.05;100.00;99156.28;10474599;28;20130;-71
2021/11/05 18:02:24;;;;;;;45.50;24.65;;;;;;;6.01;100.00;99161.00;10471153;28;20048;-72
2021/11/05 18:07:36;;;;;;;44.28;25.50;;;;;;;5.94;100.00;99172.25;10471739;28;20061;-76
2021/11/05 18:12:41;;;;;;;47.10;24.42;;;;;;;5.88;100.00;99181.56;10493771;28;20039;-71
2021/11/05 18:17:44;;;;;;;55.50;29.63;;;;;;;5.76;100.00;99180.63;10517019;28;20045;-72
2021/11/05 18:22:48;;;;;;;50.50;28.30;;;;;;;5.70;100.00;99183.78;10513921;28;20056;-71
2021/11/05 18:27:53;;;;;;;51.88;26.25;;;;;;;5.67;100.00;99194.69;10515256;28;20046;-67
2021/11/05 18:32:57;;;;;;;56.72;27.85;;;;;;;5.65;100.00;99204.63;10492176;28;20062;-68
2021/11/05 18:38:01;;;;;;;58.90;29.05;;;;;;;5.65;100.00;99207.31;10514262;28;20040;-71
2021/11/05 18:43:05;;;;;;;50.30;24.95;;;;;;;5.68;100.00;99213.28;10510631;28;20409;-70
2021/11/05 18:48:09;;;;;;;49.95;25.33;;;;;;;5.70;100.00;99213.19;10509538;28;20105;-67
2021/11/05 18:53:12;;;;;;;49.97;24.70;;;;;;;5.70;100.00;99205.16;10512530;28;20036;-73
2021/11/05 18:58:17;;;;;;;57.15;26.40;;;;;;;5.73;100.00;99217.44;10513244;28;20078;-77
2021/11/05 19:03:22;;;;;;;53.65;26.45;;;;;;;5.73;100.00;99225.47;10512678;28;20036;-70
2021/11/05 19:08:26;;;;;;;54.72;27.58;;;;;;;5.75;100.00;99227.06;10510530;28;20060;-67
2021/11/05 19:13:34;;;;;;;44.92;23.52;;;;;;;5.81;100.00;99228.44;10512180;28;20154;-73
2021/11/05 19:18:40;;;;;;;51.67;23.67;;;;;;;5.83;100.00;99238.03;10512989;28;20156;-74
2021/11/05 19:23:43;;;;;;;53.85;28.20;;;;;;;5.86;100.00;99243.19;10511661;28;20050;-70
2021/11/05 19:28:47;;;;;;;45.95;25.58;;;;;;;5.88;100.00;99242.22;10508828;28;20118;-71
2021/11/05 19:33:51;;;;;;;42.85;23.35;;;;;;;5.89;100.00;99247.44;10510283;28;20052;-71
2021/11/05 19:38:54;;;;;;;36.67;20.23;;;;;;;5.90;100.00;99248.31;10523769;28;20661;-71
2021/11/05 19:44:02;;;;;;;36.03;20.77;;;;;;;5.92;100.00;99262.44;10508511;28;20052;-69
2021/11/05 19:49:06;;;;;;;37.30;22.30;;;;;;;5.91;100.00;99252.69;10529288;28;20115;-68
2021/11/05 19:54:10;;;;;;;41.88;22.83;;;;;;;5.91;100.00;99261.56;10518009;28;20048;-67
2021/11/05 19:59:15;;;;;;;43.47;22.23;;;;;;;5.91;100.00;99266.91;10520124;28;20070;-67
2021/11/05 20:04:18;;;;;;;45.10;22.65;;;;;;;5.89;100.00;99271.50;10528715;28;20060;-70
2021/11/05 20:09:23;;;;;;;38.78;22.25;;;;;;;5.90;100.00;99275.06;10536944;28;20731;-68
2021/11/05 20:14:27;;;;;;;44.25;23.45;;;;;;;5.86;100.00;99275.28;10526973;28;20066;-69
2021/11/05 20:19:31;;;;;;;41.80;21.98;;;;;;;5.81;100.00;99272.09;10510037;28;20040;-68
2021/11/05 20:24:34;;;;;;;47.08;24.17;;;;;;;5.76;100.00;99279.56;10510080;28;20044;-68
2021/11/05 20:29:39;;;;;;;42.85;23.52;;;;;;;5.68;100.00;99287.31;10489474;28;20409;-69
2021/11/05 20:34:42;;;;;;;47.40;22.75;;;;;;;5.63;100.00;99286.75;10512640;28;20481;-68
2021/11/05 20:39:45;;;;;;;45.85;23.80;;;;;;;5.58;100.00;99287.09;10500148;28;20048;-70
2021/11/05 20:44:50;;;;;;;40.35;21.60;;;;;;;5.49;100.00;99293.91;10519233;28;20081;-71
2021/11/05 20:49:53;;;;;;;45.55;22.13;;;;;;;5.42;100.00;99303.34;10515756;28;20032;-71
2021/11/05 20:54:56;;;;;;;40.45;21.33;;;;;;;5.36;100.00;99309.97;10517053;28;20063;-71
2021/11/05 21:00:01;;;;;;;45.15;23.20;;;;;;;5.30;100.00;99309.53;10498462;28;20051;-70
2021/11/05 21:05:05;;;;;;;42.90;22.75;;;;;;;5.23;100.00;99320.63;10499188;28;20137;-70
2021/11/05 21:10:09;;;;;;;39.03;22.42;;;;;;;5.17;100.00;99320.22;10514331;28;20059;-69
2021/11/05 21:15:13;;;;;;;42.13;22.13;;;;;;;5.09;100.00;99320.72;10516985;28;20040;-69
2021/11/05 21:20:16;;;;;;;44.47;22.52;;;;;;;5.03;100.00;99334.50;10515036;28;20478;-69
2021/11/05 21:25:19;;;;;;;52.90;24.92;;;;;;;4.96;100.00;99333.19;10512475;28;20051;-67
2021/11/05 21:30:24;;;;;;;46.58;22.95;;;;;;;4.89;100.00;99338.94;10514376;28;20102;-68
2021/11/05 21:35:29;;;;;;;53.58;23.75;;;;;;;4.82;100.00;99344.81;10514662;28;20044;-70
2021/11/05 21:40:33;;;;;;;45.92;23.40;;;;;;;4.74;100.00;99346.16;10514558;28;20413;-68
2021/11/05 21:45:38;;;;;;;53.53;25.90;;;;;;;4.69;100.00;99352.75;10513901;28;20060;-69
2021/11/05 21:50:45;;;;;;;46.67;23.48;;;;;;;4.63;100.00;99357.56;10479246;28;20044;-69
2021/11/05 21:55:49;;;;;;;52.83;24.30;;;;;;;4.57;100.00;99360.63;10482976;28;20072;-68
2021/11/05 22:00:53;;;;;;;62.30;26.30;;;;;;;4.51;100.00;99358.34;10470369;28;20490;-69
2021/11/05 22:05:56;;;;;;;63.85;28.92;;;;;;;4.44;100.00;99362.34;10473486;28;20063;-71
2021/11/05 22:10:59;;;;;;;66.88;27.67;;;;;;;4.42;100.00;99366.94;10474635;28;20063;-72
2021/11/05 22:16:09;;;;;;;70.03;29.17;;;;;;;4.38;100.00;99376.94;10473831;28;20043;-73
2021/11/05 22:21:14;;;;;;;74.30;29.15;;;;;;;4.37;100.00;99377.06;10470825;28;20090;-72
2021/11/05 22:26:17;;;;;;;96.22;33.97;;;;;;;4.32;100.00;99380.03;10472909;28;20040;-70
2021/11/05 22:31:22;;;;;;;77.28;29.80;;;;;;;4.30;100.00;99372.09;10472392;28;20502;-72
2021/11/05 22:36:25;;;;;;;96.13;33.72;;;;;;;4.29;100.00;99383.72;10469240;28;20123;-73
2021/11/05 22:41:28;;;;;;;94.68;34.85;;;;;;;4.28;100.00;99374.03;10472141;28;20533;-71
2021/11/05 22:46:33;;;;;;;93.70;32.78;;;;;;;4.27;100.00;99398.13;10455338;28;20054;-73
2021/11/05 22:51:36;;;;;;;86.35;31.02;;;;;;;4.25;100.00;99398.22;10470246;28;20099;-72
2021/11/05 22:56:39;;;;;;;84.30;30.48;;;;;;;4.25;100.00;99398.22;10467759;28;20051;-71
2021/11/05 23:01:44;;;;;;;76.07;29.92;;;;;;;4.27;100.00;99406.13;10469779;28;20052;-73
2021/11/05 23:06:47;;;;;;;68.05;27.60;;;;;;;4.28;100.00;99408.72;10451755;28;20058;-71